1991 MARIAN (1991099S10132)


On this page: IBTrACS data - Map and Plots - Positions - Intensities - Original source data

Summary

Start Apr 8
End Apr 19
Basin SI
LMI 113 kt
Sources jtwc_sh
bom
neumann
In WMO? Yes
Previous storm 1991 G19091 (SI)
Previous in basin 1991 G19091 (SI)
Concurrent storms 1991 MARIAN (SI)
1991 FIFI (SI)
Next in basin 1991 FIFI (SI)
Next storm 1991 FIFI (SI)

top of page IBTrACS Data: File Access

top of page HURSAT Data: File Access

Image of storm

top of page Plots:

Map of storm track will not appear if FTP is down
Time series of cyclone Maximum Sustained Wind will not appear if FTP is down
Time series of cyclone Minimum Central Pressure will not appear if FTP is down

top of page Track Data:Position

jtwc_sh bom neumann
Date Lat Lon Lat Lon Lat Lon
1991-04-08 18:00:00 -10.3 131.7 -10.3 131.7
1991-04-09 00:00:00 -9.9 131.3 -8.8 130.0 -9.9 131.3
1991-04-09 06:00:00 -9.6 130.7 -8.9 129.4 -9.6 130.7
1991-04-09 12:00:00 -9.5 129.9 -8.9 128.8 -9.5 129.9
1991-04-09 18:00:00 -9.4 129.2 -9.0 128.2 -9.4 129.2
1991-04-10 00:00:00 -9.4 128.5 -9.3 127.6 -9.4 128.5
1991-04-10 06:00:00 -9.5 127.7 -9.6 127.1 -9.5 127.7
1991-04-10 12:00:00 -9.7 127.0 -9.9 126.6 -9.7 127.0
1991-04-10 18:00:00 -10.0 126.2 -10.3 126.0 -10.0 126.2
1991-04-11 00:00:00 -10.3 125.5 -10.6 125.5 -10.3 125.5
1991-04-11 06:00:00 -10.7 124.8 -11.0 124.9 -10.7 124.8
1991-04-11 12:00:00 -11.1 124.2 -11.3 124.3 -11.1 124.2
1991-04-11 18:00:00 -11.4 123.6 -11.6 123.6 -11.4 123.6
1991-04-12 00:00:00 -11.7 122.9 -11.9 123.0 -11.7 122.9
1991-04-12 06:00:00 -12.1 122.1 -12.5 122.0 -12.1 122.1
1991-04-12 12:00:00 -12.5 121.2 -12.9 121.2 -12.5 121.2
1991-04-12 18:00:00 -13.0 120.6 -13.1 120.4 -13.0 120.6
1991-04-13 00:00:00 -13.4 120.3 -13.4 120.2 -13.4 120.3
1991-04-13 06:00:00 -13.7 120.1 -13.9 119.9 -13.7 120.1
1991-04-13 12:00:00 -14.0 120.1 -14.1 119.7 -14.0 120.1
1991-04-13 18:00:00 -14.1 119.8 -14.0 119.6 -14.1 119.8
1991-04-14 00:00:00 -13.9 119.5 -13.8 119.5 -13.9 119.5
1991-04-14 06:00:00 -13.7 119.7 -13.8 119.5 -13.7 119.7
1991-04-14 12:00:00 -13.6 120.0 -13.6 119.8 -13.6 120.0
1991-04-14 18:00:00 -13.7 120.3 -13.5 119.8 -13.7 120.3
jtwc_sh bom neumann
1991-04-15 00:00:00 -13.9 120.5 -13.7 120.1 -13.9 120.5
1991-04-15 06:00:00 -14.2 119.5 -13.6 120.1 -14.2 119.5
1991-04-15 12:00:00 -14.2 119.5 -13.1 120.1 -14.2 119.5
1991-04-15 18:00:00 -14.1 118.6 -13.4 119.1 -14.1 118.6
1991-04-16 00:00:00 -14.2 117.8 -14.1 118.0 -14.2 117.8
1991-04-16 06:00:00 -14.4 117.0 -14.6 116.8 -14.4 117.0
1991-04-16 12:00:00 -14.6 116.2 -14.8 115.6 -14.6 116.2
1991-04-16 18:00:00 -14.8 115.4 -14.2 114.2 -14.8 115.4
1991-04-17 00:00:00 -15.1 114.8 -14.5 113.8 -15.1 114.8
1991-04-17 06:00:00 -15.4 114.2 -15.2 113.0 -15.4 114.2
1991-04-17 12:00:00 -15.8 113.6 -16.0 112.1 -15.8 113.6
1991-04-17 18:00:00 -16.2 113.1 -16.8 111.2 -16.2 113.1
1991-04-18 00:00:00 -16.7 112.6 -17.7 110.4 -16.7 112.6
1991-04-18 06:00:00 -17.8 111.8 -18.5 109.8 -17.8 111.8
1991-04-18 12:00:00 -19.1 111.1 -19.4 109.3 -19.1 111.1
1991-04-18 18:00:00 -20.7 110.1 -20.3 108.8 -20.7 110.1
1991-04-19 00:00:00 -22.1 109.7 -21.2 108.3 -22.1 109.7

top of pageTrack Data:Intensity

jtwc_sh bom neumann
Date Wind Pres Wind Pres Wind Pres
1991-04-08 18:00:00 15. 15.
1991-04-09 00:00:00 15. 25. 1004. 15.
1991-04-09 06:00:00 15. 25. 1004. 15.
1991-04-09 12:00:00 20. 25. 1004. 20.
1991-04-09 18:00:00 25. 27. 1002. 25.
1991-04-10 00:00:00 25. 31. 1000. 25.
1991-04-10 06:00:00 25. 35. 998. 25.
1991-04-10 12:00:00 25. 37. 996. 25.
1991-04-10 18:00:00 30. 45. 991. 30.
1991-04-11 00:00:00 30. 54. 985. 30.
1991-04-11 06:00:00 35. 64. 978. 35.
1991-04-11 12:00:00 45. 74. 970. 45.
1991-04-11 18:00:00 55. 82. 962. 55.
1991-04-12 00:00:00 65. 89. 955. 65.
1991-04-12 06:00:00 70. 95. 950. 70.
1991-04-12 12:00:00 75. 99. 945. 75.
1991-04-12 18:00:00 80. 109. 935. 80.
1991-04-13 00:00:00 85. 113. 930. 85.
1991-04-13 06:00:00 90. 109. 935. 90.
1991-04-13 12:00:00 90. 109. 935. 90.
1991-04-13 18:00:00 95. 103. 940. 95.
1991-04-14 00:00:00 95. 103. 940. 95.
1991-04-14 06:00:00 90. 99. 945. 90.
1991-04-14 12:00:00 85. 99. 945. 85.
1991-04-14 18:00:00 80. 95. 950. 80.
jtwc_sh bom neumann
1991-04-15 00:00:00 70. 89. 955. 70.
1991-04-15 06:00:00 65. 82. 962. 65.
1991-04-15 12:00:00 60. 74. 970. 60.
1991-04-15 18:00:00 55. 60. 980. 55.
1991-04-16 00:00:00 50. 47. 990. 50.
1991-04-16 06:00:00 50. 39. 995. 50.
1991-04-16 12:00:00 45. 39. 995. 45.
1991-04-16 18:00:00 45. 39. 995. 45.
1991-04-17 00:00:00 45. 39. 995. 45.
1991-04-17 06:00:00 45. 39. 995. 45.
1991-04-17 12:00:00 40. 35. 997. 40.
1991-04-17 18:00:00 40. 35. 998. 40.
1991-04-18 00:00:00 35. 35. 998. 35.
1991-04-18 06:00:00 30. 35. 998. 30.
1991-04-18 12:00:00 30. 35. 998. 30.
1991-04-18 18:00:00 25. 31. 1000. 25.
1991-04-19 00:00:00 25. 27. 1002. 25.

top of page Links to source data

Source Source file Format
jtwc_sh bsh191991.txt ATCF
bom IDCKMSTM0S.csv:Line=18267:MARIAN CSV file (from Excel file)
neumann tracks.sh:Storm=918:MARIAN:BSH191991:JTWC&BM601 HURDAT